Washington Executive (W32)
Clinton, MD
Field Elevation: 249
Lat: 38°44.89N  Long: 76°55.97W
CTAF/Unicom Freq: 122.8000
   
    
Weather Advisories
7/31/2014 09:20 Z
Altimeter 30.12" Hg
Wind 230° @ 0 KT
Gusts 0 KT
Temperature 16° C (61° F)
Dewpoint 13° C (55° F)
Relative Humidity 84%
Density Altitude 239 feet
Condensation Altitude 1,573 feet
  Wind and Runways
Indicated Runway = 23
History
 
 
More Info
All DigiWx sites map
Weather Radar
NOAA Forecast
 
Airport IQ 5010
(HMIEM) Shock Trauma Ctr
(26N) Ocean City
 
about DigiWx
 
FAA Disclaimer: The data displayed is for advisory purposes only and is not to be used for flight planning or operations. For official data, please call (not available) to hear the current automated AWOS voice message.
  METAR W32 310920Z AUTO 23000KT 16/13 A3012